Portada
METAR-TAF:

METAR-TAF

Aeropuertos :

Jizan, Arabia Saudita

latitud: 16-54N, longitud: 042-35E, altitud: 6 m

Observación

El informe se hizo hace 59 minutos, a las 04:00 UTC
Viento calma
Temperatura 25°C
Humedad 79%
Presión 1011 hPa
Visibilidad: 7000 m
Escasas nubes a una altura de 3000 ft

METAR: OEGN 090400Z 00000KT 7000 FEW030 25/21 Q1011 NOSIG

Hora: 07:59 (04:59 UTC)

Pronóstico

El informe se hizo hace 5 horas y 59 minutos, a las 23:00 UTC
Pronóstico válido del 09 a las 00 UTC al 10 a las 06 UTC
Viento 5 kt del este
Visibilidad: 7000 m
Evolucionando progresivamente
del 09 a las 06 UTC al 09 a las 08 UTC
Viento 15 kt del sur-suroeste
Visibilidad 10 km o más
Escasas nubes a una altura de 3000 ft
Evolucionando progresivamente
del 09 a las 18 UTC al 09 a las 20 UTC
Viento 3 kt con dirección variable
Visibilidad: 7000 m

TAF: OEGN 082300Z 0900/1006 09005KT 7000 NSC BECMG 0906/0908 21015KT 9999 FEW030 BECMG 0918/0920 VRB03KT 7000 NSC

Observaciones y pronósticos meteorológicos de más de 4000 aeropuertos (mensajes METAR y TAF).

Los puntos amarillos y rojos representan las estaciones disponibles.

Ponga el ratón en el punto deseado para ver el nombre de la estación.

Haga clic para ver las observaciones y los pronósticos meteorológicos.

Para cambiar el mapa : haga clic en los botones verdes con una cruz de color negro para hacer un zoom, en el botón verde con un guión para alejar o en las flechas verdes para mapas adyacentes.


METAR-TAF: